»·PEaware :: ASA579 KSAN-KPDX

ASA579 :: KSAN-KPDX

FLIGHT INFORMATION

Flight Status: Arrived
Operator:
Alaska Airlines
More flights by this operator :: More flights under this callsign
Pilot: Colin A. (19898)
Aircraft: MCDONNELL-DOUGLAS MD-82
(MD82)
More flights by this aircraft type
Origin: KSAN San Diego Intl-Lindbergh
United States
Destination: KPDX Portland Intl
United States
More flights between these airports :: More routes between these airports
Route: PADRZ2 EHF DUCKE GALLO TMBRS2
File this flight plan on PilotEdge
Remarks: PBN / A1B2 DOF / 180805 REG / N882SB EET / KZOA0034 KZSE0117 OPR / ASA PER / C RMK / TCAS SIMBRIEF
Altitude:
(Current/Filed)
36,000ft
Speed:
(Current/Filed)
448kts
Departed: 05-Aug-18 01:03 PM
Arrived: 05-Aug-18 03:20 PM
Distance/Time
Traveled:
811nm/2:16
Distance/Time
To Go:
Arrived

Flight Plot

Page will automatically refresh every two minutes.

Flight plan parsing failed; only flown route is shown


Map Options




Map Legend


Flown Route
Filed Route
Departure Airport
Arrival Airport
Navaid (VOR, NDB)
Fix

Horizontal Profiles

Position Reports

Time Latitude Longitude Heading Altitude Ground
Speed
05-Aug-18 12:29 32.733844 -117.198569 176 24ft 0kts
05-Aug-18 12:30 32.733844 -117.198569 176 24ft 0kts
05-Aug-18 12:31 32.733844 -117.198569 176 24ft 0kts
05-Aug-18 12:32 32.733844 -117.198569 176 24ft 0kts
05-Aug-18 12:33 32.733844 -117.198569 176 24ft 0kts
05-Aug-18 12:34 32.733844 -117.198569 176 24ft 0kts
05-Aug-18 12:35 32.733844 -117.198569 176 24ft 0kts
05-Aug-18 12:36 32.733844 -117.198569 176 24ft 0kts
05-Aug-18 12:37 32.733844 -117.198569 176 24ft 0kts
05-Aug-18 12:38 32.733844 -117.198569 176 24ft 0kts
05-Aug-18 12:39 32.733844 -117.198569 176 24ft 0kts
05-Aug-18 12:40 32.733844 -117.198569 176 24ft 0kts
05-Aug-18 12:41 32.733844 -117.198569 176 24ft 0kts
05-Aug-18 12:42 32.733844 -117.198569 176 24ft 0kts
05-Aug-18 12:43 32.733844 -117.198569 176 24ft 0kts
05-Aug-18 12:44 32.733844 -117.198569 176 24ft 0kts
05-Aug-18 12:45 32.733844 -117.198569 176 24ft 0kts
05-Aug-18 12:46 32.733844 -117.198569 176 24ft 0kts
05-Aug-18 12:47 32.733844 -117.198569 176 24ft 0kts
05-Aug-18 12:48 32.733844 -117.198569 176 24ft 0kts
05-Aug-18 12:49 32.733844 -117.198569 176 24ft 0kts
05-Aug-18 12:50 32.733844 -117.198569 176 24ft 0kts
05-Aug-18 12:51 32.733844 -117.198569 176 24ft 0kts
05-Aug-18 12:52 32.733844 -117.198569 176 24ft 0kts
05-Aug-18 12:53 32.733844 -117.198569 176 24ft 0kts
05-Aug-18 12:54 32.733844 -117.198569 176 24ft 0kts
05-Aug-18 12:55 32.733851 -117.198570 176 24ft 0kts
05-Aug-18 12:56 32.734471 -117.198595 171 24ft 2kts
05-Aug-18 12:57 32.734791 -117.198935 105 24ft 0kts
05-Aug-18 12:58 32.734790 -117.198932 105 24ft 0kts
05-Aug-18 12:59 32.734780 -117.198892 105 24ft 4kts
05-Aug-18 13:00 32.734467 -117.197555 105 24ft 22kts
05-Aug-18 13:01 32.731671 -117.186094 106 24ft 37kts
05-Aug-18 13:02 32.729537 -117.176974 91 24ft 0kts
05-Aug-18 13:03 32.729537 -117.176971 91 24ft 0kts
05-Aug-18 13:04 32.731753 -117.182204 285 24ft 82kts
05-Aug-18 13:05 32.744646 -117.229971 295 1595ft 200kts
05-Aug-18 13:06 32.782366 -117.289708 305 3635ft 234kts
05-Aug-18 13:07 32.825122 -117.357737 307 5672ft 265kts
05-Aug-18 13:08 32.871088 -117.429075 306 7683ft 276kts
05-Aug-18 13:09 32.918690 -117.502863 305 9689ft 284kts
05-Aug-18 13:10 32.967117 -117.578231 303 11694ft 288kts
05-Aug-18 13:11 33.016389 -117.654848 302 13702ft 294kts
05-Aug-18 13:12 33.068366 -117.732889 308 15193ft 318kts
05-Aug-18 13:13 33.139988 -117.807433 315 15944ft 353kts
05-Aug-18 13:14 33.216279 -117.883288 314 17388ft 360kts
05-Aug-18 13:15 33.294810 -117.959779 314 18871ft 368kts
05-Aug-18 13:16 33.374728 -118.037435 313 20351ft 374kts
05-Aug-18 13:17 33.456387 -118.117210 313 21596ft 381kts
05-Aug-18 13:18 33.538897 -118.198746 313 22729ft 388kts
05-Aug-18 13:19 33.631445 -118.269973 327 23741ft 407kts
05-Aug-18 13:20 33.730747 -118.321826 328 24632ft 414kts
05-Aug-18 13:21 33.837227 -118.376478 329 25554ft 419kts
05-Aug-18 13:22 33.945819 -118.430735 328 26377ft 424kts
05-Aug-18 13:23 34.059739 -118.474505 343 27181ft 444kts
05-Aug-18 13:24 34.184378 -118.490157 347 27948ft 454kts
05-Aug-18 13:25 34.310784 -118.506394 344 28676ft 457kts
05-Aug-18 13:26 34.437264 -118.526453 343 29405ft 460kts
05-Aug-18 13:27 34.564666 -118.546585 343 30136ft 462kts
05-Aug-18 13:28 34.692498 -118.565980 343 30928ft 463kts
05-Aug-18 13:29 34.819981 -118.585676 342 31689ft 462kts
05-Aug-18 13:30 34.947861 -118.604689 342 32418ft 461kts
05-Aug-18 13:31 35.061981 -118.652379 310 33093ft 413kts
05-Aug-18 13:32 35.144541 -118.746442 306 33725ft 406kts
05-Aug-18 13:33 35.231370 -118.836173 309 34282ft 409kts
05-Aug-18 13:34 35.319142 -118.924520 308 34726ft 408kts
05-Aug-18 13:35 35.406319 -119.013546 309 35150ft 408kts
05-Aug-18 13:36 35.497274 -119.098131 322 35473ft 427kts
05-Aug-18 13:37 35.610399 -119.149720 332 35888ft 438kts
05-Aug-18 13:38 35.727948 -119.193898 332 35994ft 442kts
05-Aug-18 13:39 35.844321 -119.240714 331 36108ft 442kts
05-Aug-18 13:40 35.960914 -119.288674 331 36119ft 438kts
05-Aug-18 13:41 36.077373 -119.336214 332 36126ft 443kts
05-Aug-18 13:42 36.194075 -119.384162 332 36128ft 442kts
05-Aug-18 13:43 36.310970 -119.432484 332 36129ft 442kts
05-Aug-18 13:44 36.427812 -119.479785 332 36131ft 442kts
05-Aug-18 13:45 36.544914 -119.528184 332 36134ft 442kts
05-Aug-18 13:46 36.661361 -119.576488 332 36135ft 442kts
05-Aug-18 13:47 36.778405 -119.625088 333 36136ft 443kts
05-Aug-18 13:48 36.895591 -119.673476 333 36139ft 444kts
05-Aug-18 13:49 37.012638 -119.722632 334 36138ft 444kts
05-Aug-18 13:50 37.129913 -119.771665 334 36141ft 445kts
05-Aug-18 13:51 37.247256 -119.821013 335 36145ft 445kts
05-Aug-18 13:52 37.365028 -119.869936 336 36146ft 446kts
05-Aug-18 13:53 37.482976 -119.919901 336 36149ft 446kts
05-Aug-18 13:54 37.600217 -119.970157 337 36151ft 446kts
05-Aug-18 13:55 37.718121 -120.019895 337 36169ft 446kts
05-Aug-18 13:56 37.836066 -120.070249 337 36176ft 446kts
05-Aug-18 13:57 37.953575 -120.119668 338 36181ft 447kts
05-Aug-18 13:58 38.072921 -120.165934 339 36185ft 447kts
05-Aug-18 13:59 38.192230 -120.211532 339 36185ft 447kts
05-Aug-18 14:00 38.310965 -120.257563 339 36183ft 446kts
05-Aug-18 14:01 38.430283 -120.302508 340 36180ft 445kts
05-Aug-18 14:02 38.548501 -120.347882 340 36176ft 444kts
05-Aug-18 14:03 38.666625 -120.393712 340 36176ft 443kts
05-Aug-18 14:04 38.784650 -120.440036 340 36179ft 442kts
05-Aug-18 14:05 38.902432 -120.485936 341 36182ft 441kts
05-Aug-18 14:06 39.019685 -120.531788 341 36188ft 441kts
05-Aug-18 14:07 39.136884 -120.578096 341 36197ft 440kts
05-Aug-18 14:08 39.254042 -120.624336 341 36205ft 440kts
05-Aug-18 14:09 39.370966 -120.670887 341 36207ft 439kts
05-Aug-18 14:10 39.487821 -120.717873 341 36198ft 439kts
05-Aug-18 14:11 39.604665 -120.763639 342 36182ft 438kts
05-Aug-18 14:12 39.701827 -120.802355 342 36166ft 438kts
05-Aug-18 14:13 39.837350 -120.856928 341 36140ft 438kts
05-Aug-18 14:14 39.934575 -120.896149 342 36123ft 437kts
05-Aug-18 14:15 40.050544 -120.942127 343 36105ft 436kts
05-Aug-18 14:16 40.185189 -120.997122 342 36088ft 434kts
05-Aug-18 14:17 40.281259 -121.036452 343 36079ft 433kts
05-Aug-18 14:18 40.396520 -121.082980 343 36071ft 432kts
05-Aug-18 14:19 40.530542 -121.137433 343 36067ft 432kts
05-Aug-18 14:20 40.626036 -121.176773 343 36069ft 431kts
05-Aug-18 14:21 40.740351 -121.224255 343 36065ft 431kts
05-Aug-18 14:22 40.854818 -121.270446 343 36065ft 430kts
05-Aug-18 14:23 40.968980 -121.317808 343 36067ft 430kts
05-Aug-18 14:24 41.082983 -121.365737 343 36069ft 429kts
05-Aug-18 14:25 41.197045 -121.412373 343 36070ft 428kts
05-Aug-18 14:26 41.310830 -121.459618 344 36072ft 428kts
05-Aug-18 14:27 41.424261 -121.507083 343 36077ft 427kts
05-Aug-18 14:28 41.537664 -121.555009 344 36084ft 426kts
05-Aug-18 14:29 41.650893 -121.601897 343 36087ft 425kts
05-Aug-18 14:30 41.763731 -121.649791 343 36088ft 425kts
05-Aug-18 14:31 41.876166 -121.697966 344 36095ft 425kts
05-Aug-18 14:32 41.989016 -121.745131 344 36097ft 424kts
05-Aug-18 14:33 42.101816 -121.793165 343 36098ft 424kts
05-Aug-18 14:34 42.214321 -121.841673 343 36098ft 424kts
05-Aug-18 14:35 42.326727 -121.890196 344 36099ft 424kts
05-Aug-18 14:36 42.439404 -121.938188 344 36101ft 424kts
05-Aug-18 14:37 42.551806 -121.986694 343 36105ft 424kts
05-Aug-18 14:38 42.664335 -122.035365 343 36106ft 423kts
05-Aug-18 14:39 42.777734 -122.078129 345 36108ft 423kts
05-Aug-18 14:40 42.887355 -122.129889 340 36109ft 424kts
05-Aug-18 14:41 42.997105 -122.188258 339 36111ft 423kts
05-Aug-18 14:42 43.107158 -122.245247 342 36113ft 423kts
05-Aug-18 14:43 43.218196 -122.298172 342 36115ft 422kts
05-Aug-18 14:44 43.329244 -122.350684 343 36124ft 422kts
05-Aug-18 14:45 43.440075 -122.406516 340 35489ft 425kts
05-Aug-18 14:46 43.554393 -122.465182 342 33703ft 436kts
05-Aug-18 14:47 43.666449 -122.519138 343 31901ft 421kts
05-Aug-18 14:48 43.776043 -122.571250 343 30244ft 411kts
05-Aug-18 14:49 43.882813 -122.622509 343 28644ft 402kts
05-Aug-18 14:50 43.990351 -122.673050 342 27046ft 406kts
05-Aug-18 14:51 44.095861 -122.725257 341 25441ft 397kts
05-Aug-18 14:52 44.201047 -122.756687 2 23935ft 386kts
05-Aug-18 14:53 44.305601 -122.741584 7 22561ft 365kts
05-Aug-18 14:54 44.405199 -122.726892 5 21164ft 357kts
05-Aug-18 14:55 44.503218 -122.716357 4 19841ft 350kts
05-Aug-18 14:56 44.599651 -122.706497 4 18641ft 344kts
05-Aug-18 14:57 44.694440 -122.696715 4 17436ft 338kts
05-Aug-18 14:58 44.786776 -122.687094 4 16237ft 330kts
05-Aug-18 14:59 44.877605 -122.677726 4 15030ft 322kts
05-Aug-18 15:00 44.966047 -122.668642 4 14041ft 316kts
05-Aug-18 15:01 45.053568 -122.659366 4 13228ft 311kts
05-Aug-18 15:02 45.138304 -122.650471 3 11505ft 298kts
05-Aug-18 15:03 45.220251 -122.642917 3 9864ft 286kts
05-Aug-18 15:04 45.290335 -122.612158 31 9339ft 266kts
05-Aug-18 15:05 45.350999 -122.552970 32 8337ft 259kts
05-Aug-18 15:06 45.409263 -122.497687 31 7324ft 245kts
05-Aug-18 15:07 45.469534 -122.461753 8 6555ft 239kts
05-Aug-18 15:08 45.531017 -122.472597 346 4875ft 206kts
05-Aug-18 15:09 45.581892 -122.478425 338 4300ft 161kts
05-Aug-18 15:10 45.595166 -122.544307 229 3995ft 218kts
05-Aug-18 15:11 45.541812 -122.586498 206 3994ft 219kts
05-Aug-18 15:12 45.486707 -122.623865 206 3993ft 220kts
05-Aug-18 15:13 45.431603 -122.661463 205 3994ft 219kts
05-Aug-18 15:14 45.391222 -122.613107 107 4001ft 224kts
05-Aug-18 15:15 45.380724 -122.527570 60 3906ft 226kts
05-Aug-18 15:16 45.431841 -122.480069 26 3020ft 219kts
05-Aug-18 15:17 45.489910 -122.460031 357 2692ft 223kts
05-Aug-18 15:18 45.542924 -122.487234 291 1569ft 217kts
05-Aug-18 15:19 45.567327 -122.549694 299 638ft 161kts
05-Aug-18 15:20 45.586122 -122.598183 298 39ft 80kts
05-Aug-18 15:21 45.588405 -122.602507 355 39ft 0kts
05-Aug-18 15:22 45.589517 -122.602233 20 39ft 18kts
05-Aug-18 15:23 45.590668 -122.596953 140 39ft 9kts
05-Aug-18 15:24 45.590075 -122.597048 211 39ft 0kts

Navigation Log

Ident Type
Flight plan parsing failed, navigation log unavailable